createdAt,value
2018-08-17T00:00:59.532Z,16.7
2018-08-17T00:02:06.747Z,16.8
2018-08-17T00:03:13.972Z,16.8
2018-08-17T00:04:21.183Z,16.7
2018-08-17T00:05:28.408Z,16.7
2018-08-17T00:06:35.829Z,16.7
2018-08-17T00:07:43.054Z,16.7
2018-08-17T00:08:50.272Z,16.6
2018-08-17T00:09:57.488Z,16.6
2018-08-17T00:11:04.699Z,16.6
2018-08-17T00:12:11.916Z,16.6
2018-08-17T00:13:19.133Z,16.6
2018-08-17T00:14:26.354Z,16.5
2018-08-17T00:15:33.586Z,16.5
2018-08-17T00:16:40.814Z,16.5
2018-08-17T00:17:48.048Z,16.5
2018-08-17T00:18:55.267Z,16.5
2018-08-17T00:20:02.514Z,16.5
2018-08-17T00:21:09.734Z,16.5
2018-08-17T00:22:16.957Z,16.4
2018-08-17T00:23:24.180Z,16.4
2018-08-17T00:24:31.397Z,16.4
2018-08-17T00:25:38.610Z,16.4
2018-08-17T00:26:45.826Z,16.4
2018-08-17T00:27:52.768Z,16.4
2018-08-17T00:28:59.998Z,16.3
2018-08-17T00:30:07.220Z,16.3
2018-08-17T00:31:14.441Z,16.3
2018-08-17T00:32:21.667Z,16.3
2018-08-17T00:33:28.624Z,16.2
2018-08-17T00:34:35.568Z,16.2
2018-08-17T00:35:42.794Z,16.3
2018-08-17T00:36:50.004Z,16.2
2018-08-17T00:37:57.231Z,16.2
2018-08-17T00:39:04.451Z,16.2
2018-08-17T00:40:11.670Z,16.2
2018-08-17T00:41:18.892Z,16.2
2018-08-17T00:42:26.117Z,16.2
2018-08-17T00:43:33.344Z,16.2
2018-08-17T00:44:40.584Z,16.1
2018-08-17T00:45:47.533Z,16.1
2018-08-17T00:46:54.749Z,16.1
2018-08-17T00:48:02.068Z,16.1
2018-08-17T00:49:09.397Z,16
2018-08-17T00:50:16.713Z,16.1
2018-08-17T00:51:23.929Z,16.1
2018-08-17T00:52:31.169Z,16.1
2018-08-17T00:53:38.401Z,16
2018-08-17T00:54:45.629Z,16.1
2018-08-17T00:55:52.858Z,16.1
2018-08-17T00:57:00.091Z,16
2018-08-17T00:58:07.559Z,16
2018-08-17T00:59:14.781Z,16
2018-08-17T01:00:22.234Z,16
2018-08-17T01:01:29.458Z,15.9
2018-08-17T01:02:36.914Z,15.9
2018-08-17T01:03:43.866Z,15.9
2018-08-17T01:04:51.085Z,15.9
2018-08-17T01:05:58.306Z,15.9
2018-08-17T01:07:05.523Z,15.9
2018-08-17T01:08:12.741Z,15.9
2018-08-17T01:09:19.963Z,15.9
2018-08-17T01:10:26.911Z,15.9
2018-08-17T01:11:34.128Z,15.9
2018-08-17T01:12:41.346Z,15.8
2018-08-17T01:13:48.573Z,15.8
2018-08-17T01:14:55.781Z,15.8
2018-08-17T01:16:02.996Z,15.8
2018-08-17T01:17:10.214Z,15.8
2018-08-17T01:18:17.422Z,15.8
2018-08-17T01:19:24.642Z,15.7
2018-08-17T01:20:31.588Z,15.7
2018-08-17T01:21:38.533Z,15.7
2018-08-17T01:22:45.754Z,15.7
2018-08-17T01:23:52.982Z,15.8
2018-08-17T01:25:00.196Z,15.8
2018-08-17T01:26:07.419Z,15.8
2018-08-17T01:27:14.085Z,15.8
2018-08-17T01:28:21.034Z,15.8
2018-08-17T01:29:28.259Z,15.7
2018-08-17T01:30:35.480Z,15.8
2018-08-17T01:31:42.446Z,15.7
2018-08-17T01:32:49.395Z,15.7
2018-08-17T01:33:56.613Z,15.7
2018-08-17T01:35:03.843Z,15.7
2018-08-17T01:36:11.061Z,15.7
2018-08-17T01:37:18.284Z,15.7
2018-08-17T01:38:25.902Z,15.7
2018-08-17T01:39:33.120Z,15.7
2018-08-17T01:40:40.360Z,15.8
2018-08-17T01:41:47.314Z,15.7
2018-08-17T01:42:54.247Z,15.8
2018-08-17T01:44:01.470Z,15.7
2018-08-17T01:45:08.413Z,15.7
2018-08-17T01:46:15.636Z,15.8
2018-08-17T01:47:22.857Z,15.7
2018-08-17T01:48:30.076Z,15.8
2018-08-17T01:49:37.294Z,15.8
2018-08-17T01:50:44.245Z,15.7
2018-08-17T01:51:50.928Z,15.7
2018-08-17T01:52:58.142Z,15.7
2018-08-17T01:54:05.374Z,15.7
2018-08-17T01:55:12.594Z,15.7
2018-08-17T01:56:19.540Z,15.7
2018-08-17T01:57:26.757Z,15.7
2018-08-17T01:58:33.982Z,15.7
2018-08-17T01:59:41.189Z,15.7
2018-08-17T02:00:48.404Z,15.6
2018-08-17T02:01:55.631Z,15.6
2018-08-17T02:03:02.852Z,15.6
2018-08-17T02:04:10.066Z,15.6
2018-08-17T02:05:17.004Z,15.5
2018-08-17T02:06:24.225Z,15.5
2018-08-17T02:07:31.185Z,15.5
2018-08-17T02:08:38.407Z,15.5
2018-08-17T02:09:45.634Z,15.4
2018-08-17T02:10:52.850Z,15.4
2018-08-17T02:12:00.089Z,15.4
2018-08-17T02:13:07.310Z,15.4
2018-08-17T02:14:14.527Z,15.3
2018-08-17T02:15:21.751Z,15.4
2018-08-17T02:16:28.971Z,15.3
2018-08-17T02:17:35.642Z,15.3
2018-08-17T02:18:42.857Z,15.3
2018-08-17T02:19:49.800Z,15.4
2018-08-17T02:20:57.019Z,15.4
2018-08-17T02:22:04.234Z,15.4
2018-08-17T02:23:11.474Z,15.3
2018-08-17T02:24:18.735Z,15.3
2018-08-17T02:25:26.021Z,15.3
2018-08-17T02:26:32.969Z,15.3
2018-08-17T02:27:40.195Z,15.3
2018-08-17T02:28:47.408Z,15.3
2018-08-17T02:29:54.365Z,15.3
2018-08-17T02:31:01.583Z,15.3
2018-08-17T02:32:08.816Z,15.3
2018-08-17T02:33:16.239Z,15.3
2018-08-17T02:34:23.449Z,15.2
2018-08-17T02:35:30.666Z,15.2
2018-08-17T02:36:37.622Z,15.2
2018-08-17T02:37:44.851Z,15.2
2018-08-17T02:38:52.055Z,15.1
2018-08-17T02:39:59.282Z,15.1
2018-08-17T02:41:06.504Z,15.1
2018-08-17T02:42:13.714Z,15.2
2018-08-17T02:43:20.974Z,15.2
2018-08-17T02:44:28.190Z,15.2
2018-08-17T02:45:35.406Z,15.2
2018-08-17T02:46:42.626Z,15.2
2018-08-17T02:47:49.865Z,15.2
2018-08-17T02:48:57.081Z,15.1
2018-08-17T02:50:04.328Z,15.1
2018-08-17T02:51:11.264Z,15.1
2018-08-17T02:52:18.481Z,15.1
2018-08-17T02:53:25.422Z,15
2018-08-17T02:54:32.367Z,15
2018-08-17T02:55:39.587Z,15
2018-08-17T02:56:46.807Z,15
2018-08-17T02:57:54.024Z,15
2018-08-17T02:59:01.250Z,14.9
2018-08-17T03:00:08.469Z,14.9
2018-08-17T03:01:15.754Z,15
2018-08-17T03:02:22.973Z,15
2018-08-17T03:03:30.192Z,15
2018-08-17T03:04:36.869Z,15
2018-08-17T03:05:44.081Z,15
2018-08-17T03:06:51.301Z,15
2018-08-17T03:07:58.520Z,15
2018-08-17T03:09:05.736Z,15
2018-08-17T03:10:12.954Z,14.9
2018-08-17T03:11:19.895Z,14.9
2018-08-17T03:12:26.838Z,14.9
2018-08-17T03:13:34.066Z,14.9
2018-08-17T03:14:41.010Z,14.9
2018-08-17T03:15:48.229Z,14.9
2018-08-17T03:16:55.509Z,14.9
2018-08-17T03:18:02.764Z,14.9
2018-08-17T03:19:09.977Z,14.9
2018-08-17T03:20:17.198Z,14.9
2018-08-17T03:21:24.430Z,14.9
2018-08-17T03:22:31.381Z,14.9
2018-08-17T03:23:38.609Z,14.9
2018-08-17T03:24:45.828Z,14.8
2018-08-17T03:25:53.057Z,14.8
2018-08-17T03:27:00.277Z,14.8
2018-08-17T03:28:07.515Z,14.8
2018-08-17T03:29:14.732Z,14.8
2018-08-17T03:30:21.948Z,14.8
2018-08-17T03:31:29.171Z,14.9
2018-08-17T03:32:36.389Z,14.9
2018-08-17T03:33:43.609Z,14.9
2018-08-17T03:34:50.819Z,14.9
2018-08-17T03:35:58.038Z,14.9
2018-08-17T03:37:05.355Z,14.8
2018-08-17T03:38:12.832Z,14.8
2018-08-17T03:39:20.352Z,14.8
2018-08-17T03:40:27.568Z,14.8
2018-08-17T03:41:34.795Z,14.7
2018-08-17T03:42:41.738Z,14.7
2018-08-17T03:43:48.960Z,14.7
2018-08-17T03:44:55.899Z,14.7
2018-08-17T03:46:03.117Z,14.7
2018-08-17T03:47:10.333Z,14.6
2018-08-17T03:48:17.275Z,14.6
2018-08-17T03:49:24.221Z,14.6
2018-08-17T03:50:31.440Z,14.6
2018-08-17T03:51:38.666Z,14.6
2018-08-17T03:52:45.630Z,14.6
2018-08-17T03:53:52.851Z,14.5
2018-08-17T03:55:00.074Z,14.6
2018-08-17T03:56:21.942Z,14.6
2018-08-17T03:57:29.158Z,14.5
2018-08-17T03:58:36.375Z,14.5
2018-08-17T03:59:43.615Z,14.5
2018-08-17T04:00:50.891Z,14.5
2018-08-17T04:01:58.121Z,14.5
2018-08-17T04:03:05.336Z,14.5
2018-08-17T04:04:12.556Z,14.5
2018-08-17T04:05:19.776Z,14.5
2018-08-17T04:06:27.001Z,14.5
2018-08-17T04:07:33.950Z,14.5
2018-08-17T04:08:40.901Z,14.5
2018-08-17T04:09:47.883Z,14.5
2018-08-17T04:10:55.119Z,14.5
2018-08-17T04:12:02.330Z,14.5
2018-08-17T04:13:09.559Z,14.5
2018-08-17T04:14:16.792Z,14.5
2018-08-17T04:15:24.018Z,14.5
2018-08-17T04:16:31.075Z,14.5
2018-08-17T04:17:38.009Z,14.4
2018-08-17T04:18:44.948Z,14.4
2018-08-17T04:19:51.890Z,14.5
2018-08-17T04:20:59.101Z,14.4
2018-08-17T04:22:06.337Z,14.5
2018-08-17T04:23:13.553Z,14.5
2018-08-17T04:24:20.781Z,14.5
2018-08-17T04:25:28.000Z,14.5
2018-08-17T04:26:35.227Z,14.5
2018-08-17T04:27:42.430Z,14.4
2018-08-17T04:28:49.656Z,14.4
2018-08-17T04:29:56.942Z,14.5
2018-08-17T04:31:04.169Z,14.5
2018-08-17T04:32:11.103Z,14.5
2018-08-17T04:33:18.334Z,14.4
2018-08-17T04:34:25.555Z,14.4
2018-08-17T04:35:32.988Z,14.5
2018-08-17T04:36:40.441Z,14.5
2018-08-17T04:37:47.664Z,14.5
2018-08-17T04:38:54.883Z,14.5
2018-08-17T04:40:02.097Z,14.5
2018-08-17T04:41:09.320Z,14.5
2018-08-17T04:42:16.539Z,14.5
2018-08-17T04:43:23.500Z,14.6
2018-08-17T04:44:30.461Z,14.6
2018-08-17T04:45:37.685Z,14.6
2018-08-17T04:46:44.927Z,14.6
2018-08-17T04:47:52.143Z,14.6
2018-08-17T04:48:59.366Z,14.7
2018-08-17T04:50:06.316Z,14.7
2018-08-17T04:51:13.535Z,14.7
2018-08-17T04:52:20.499Z,14.7
2018-08-17T04:53:27.720Z,14.7
2018-08-17T04:54:34.955Z,14.7
2018-08-17T04:55:42.183Z,14.7
2018-08-17T04:56:49.403Z,14.7
2018-08-17T04:57:56.647Z,14.8
2018-08-17T04:59:03.868Z,14.8
2018-08-17T05:00:11.100Z,14.8
2018-08-17T05:01:18.318Z,14.8
2018-08-17T05:02:25.259Z,14.8
2018-08-17T05:03:47.129Z,14.8
2018-08-17T05:04:54.362Z,14.8
2018-08-17T05:06:01.582Z,14.8
2018-08-17T05:07:08.820Z,14.9
2018-08-17T05:08:16.033Z,14.9
2018-08-17T05:09:23.264Z,15
2018-08-17T05:10:30.485Z,15
2018-08-17T05:11:37.709Z,15
2018-08-17T05:12:44.929Z,15.1
2018-08-17T05:13:52.149Z,15.1
2018-08-17T05:14:59.092Z,15.1
2018-08-17T05:16:06.309Z,15.1
2018-08-17T05:17:13.526Z,15.1
2018-08-17T05:18:20.763Z,15.2
2018-08-17T05:19:27.977Z,15.2
2018-08-17T05:20:35.211Z,15.2
2018-08-17T05:21:42.150Z,15.3
2018-08-17T05:22:49.366Z,15.4
2018-08-17T05:23:56.591Z,15.4
2018-08-17T05:25:03.808Z,15.5
2018-08-17T05:26:11.028Z,15.5
2018-08-17T05:27:18.246Z,15.5
2018-08-17T05:28:25.463Z,15.6
2018-08-17T05:29:32.698Z,15.6
2018-08-17T05:30:39.914Z,15.6
2018-08-17T05:31:46.874Z,15.6
2018-08-17T05:32:54.098Z,15.7
2018-08-17T05:34:01.316Z,15.7
2018-08-17T05:35:08.537Z,15.7
2018-08-17T05:36:15.761Z,15.7
2018-08-17T05:37:22.974Z,15.7
2018-08-17T05:38:30.202Z,15.7
2018-08-17T05:39:37.421Z,15.7
2018-08-17T05:40:44.660Z,15.8
2018-08-17T05:41:51.617Z,15.8
2018-08-17T05:42:58.832Z,15.8
2018-08-17T05:44:06.053Z,15.8
2018-08-17T05:45:13.527Z,15.9
2018-08-17T05:46:20.745Z,15.9
2018-08-17T05:47:27.976Z,16
2018-08-17T05:48:35.192Z,16
2018-08-17T05:49:42.413Z,16.1
2018-08-17T05:50:49.634Z,16.1
2018-08-17T05:51:56.305Z,16.2
2018-08-17T05:53:03.525Z,16.3
2018-08-17T05:54:10.206Z,16.3
2018-08-17T05:55:17.427Z,16.4
2018-08-17T05:56:24.662Z,16.5
2018-08-17T05:57:31.606Z,16.5
2018-08-17T05:58:38.274Z,16.6
2018-08-17T05:59:45.490Z,16.8
2018-08-17T06:00:52.706Z,16.9
2018-08-17T06:01:59.651Z,17
2018-08-17T06:03:06.595Z,17.1
2018-08-17T06:04:13.819Z,17.3
2018-08-17T06:05:21.039Z,17.4
2018-08-17T06:06:28.261Z,17.5
2018-08-17T06:07:35.478Z,17.6
2018-08-17T06:08:42.702Z,17.7
2018-08-17T06:09:49.928Z,17.9
2018-08-17T06:10:57.326Z,18
2018-08-17T06:12:04.649Z,18.2
2018-08-17T06:13:11.878Z,18.4
2018-08-17T06:14:19.314Z,18.5
2018-08-17T06:15:26.532Z,18.7
2018-08-17T06:16:33.740Z,18.7
2018-08-17T06:17:40.681Z,18.8
2018-08-17T06:18:47.916Z,18.9
2018-08-17T06:19:55.130Z,19
2018-08-17T06:21:02.358Z,19
2018-08-17T06:22:09.580Z,19.1
2018-08-17T06:23:16.521Z,19.2
2018-08-17T06:24:23.740Z,19.4
2018-08-17T06:25:30.687Z,19.6
2018-08-17T06:26:37.907Z,19.8
2018-08-17T06:27:44.863Z,20.1
2018-08-17T06:28:52.086Z,20.3
2018-08-17T06:29:59.308Z,20.5
2018-08-17T06:31:06.245Z,20.6
2018-08-17T06:32:13.505Z,20.7
2018-08-17T06:33:20.718Z,20.7
2018-08-17T06:34:27.665Z,20.9
2018-08-17T06:35:34.882Z,21.1
2018-08-17T06:36:42.101Z,21.3
2018-08-17T06:37:49.320Z,21.4
2018-08-17T06:38:56.264Z,21.6
2018-08-17T06:40:03.215Z,21.6
2018-08-17T06:41:10.443Z,21.8
2018-08-17T06:42:17.389Z,21.8
2018-08-17T06:43:24.604Z,21.8
2018-08-17T06:44:31.833Z,21.9
2018-08-17T06:45:38.788Z,22.1
2018-08-17T06:46:46.011Z,22.4
2018-08-17T06:47:53.247Z,22.6
2018-08-17T06:49:00.460Z,22.9
2018-08-17T06:50:07.681Z,23.2
2018-08-17T06:51:14.844Z,23.5
2018-08-17T06:52:22.062Z,23.7
2018-08-17T06:53:29.287Z,23.9
2018-08-17T06:54:36.539Z,24.1
2018-08-17T06:55:43.767Z,24.3
2018-08-17T06:56:50.995Z,24.4
2018-08-17T06:57:58.225Z,24.3
2018-08-17T06:59:05.438Z,24.3
2018-08-17T07:00:12.648Z,24.4
2018-08-17T07:01:19.870Z,24.5
2018-08-17T07:02:27.190Z,24.6
2018-08-17T07:03:34.468Z,24.8
2018-08-17T07:04:41.682Z,25
2018-08-17T07:05:48.901Z,25.1
2018-08-17T07:06:55.566Z,25.2
2018-08-17T07:08:02.802Z,25.3
2018-08-17T07:09:10.183Z,25.4
2018-08-17T07:10:17.800Z,25.5
2018-08-17T07:11:25.024Z,25.4
2018-08-17T07:12:32.030Z,25.4
2018-08-17T07:13:39.259Z,25.5
2018-08-17T07:14:46.213Z,25.6
2018-08-17T07:15:53.450Z,25.6
2018-08-17T07:17:00.725Z,25.7
2018-08-17T07:18:07.955Z,25.9
2018-08-17T07:19:15.182Z,26
2018-08-17T07:20:22.408Z,26.1
2018-08-17T07:21:29.461Z,26.3
2018-08-17T07:22:36.756Z,26.4
2018-08-17T07:23:43.994Z,26.4
2018-08-17T07:24:51.217Z,26.4
2018-08-17T07:25:58.181Z,26.4
2018-08-17T07:27:05.411Z,26.4
2018-08-17T07:28:12.858Z,26.6
2018-08-17T07:29:20.411Z,26.7
2018-08-17T07:30:27.630Z,26.7
2018-08-17T07:31:34.859Z,26.7
2018-08-17T07:32:41.536Z,26.8
2018-08-17T07:33:48.756Z,27.1
2018-08-17T07:34:55.980Z,27.4
2018-08-17T07:36:03.202Z,27.6
2018-08-17T07:37:10.434Z,27.7
2018-08-17T07:38:17.393Z,27.8
2018-08-17T07:39:24.617Z,27.7
2018-08-17T07:40:31.840Z,27.7
2018-08-17T07:41:39.138Z,27.5
2018-08-17T07:42:46.592Z,27.6
2018-08-17T07:43:53.820Z,27.8
2018-08-17T07:45:01.049Z,27.9
2018-08-17T07:46:08.271Z,27.9
2018-08-17T07:47:15.522Z,27.9
2018-08-17T07:48:22.883Z,28
2018-08-17T07:49:30.438Z,28.1
2018-08-17T07:50:37.663Z,28.4
2018-08-17T07:51:44.897Z,28.6
2018-08-17T07:52:52.133Z,28.7
2018-08-17T07:53:59.353Z,28.6
2018-08-17T07:55:06.574Z,28.6
2018-08-17T07:56:13.791Z,28.8
2018-08-17T07:57:21.012Z,28.9
2018-08-17T07:58:28.228Z,29
2018-08-17T07:59:35.452Z,28.8
2018-08-17T08:00:42.394Z,28.7
2018-08-17T08:01:49.624Z,28.7
2018-08-17T08:02:56.845Z,28.7
2018-08-17T08:04:04.077Z,28.7
2018-08-17T08:05:11.035Z,28.9
2018-08-17T08:06:18.281Z,29
2018-08-17T08:07:25.516Z,29.2
2018-08-17T08:08:32.789Z,29.4
2018-08-17T08:09:40.007Z,29.4
2018-08-17T08:10:47.249Z,29.4
2018-08-17T08:11:54.232Z,29.2
2018-08-17T08:13:01.172Z,29.3
2018-08-17T08:14:08.408Z,29.3
2018-08-17T08:15:15.630Z,29.3
2018-08-17T08:16:22.854Z,29.4
2018-08-17T08:17:30.072Z,29.4
2018-08-17T08:18:37.303Z,29.4
2018-08-17T08:19:44.520Z,29.4
2018-08-17T08:20:51.743Z,29.3
2018-08-17T08:21:58.963Z,29.5
2018-08-17T08:23:06.184Z,29.8
2018-08-17T08:24:13.430Z,30.1
2018-08-17T08:25:20.656Z,30.1
2018-08-17T08:26:27.900Z,29.9
2018-08-17T08:27:35.132Z,29.8
2018-08-17T08:28:42.360Z,29.9
2018-08-17T08:29:49.601Z,30.1
2018-08-17T08:30:56.282Z,30.2
2018-08-17T08:32:03.502Z,30.1
2018-08-17T08:33:10.726Z,30.4
2018-08-17T08:34:17.949Z,30.5
2018-08-17T08:35:25.184Z,30.6
2018-08-17T08:36:32.128Z,30.5
2018-08-17T08:37:39.360Z,30.3
2018-08-17T08:38:46.594Z,30.2
2018-08-17T08:39:53.932Z,30.3
2018-08-17T08:41:01.317Z,30.6
2018-08-17T08:42:08.540Z,30.7
2018-08-17T08:43:15.764Z,30.8
2018-08-17T08:44:22.981Z,30.8
2018-08-17T08:45:30.361Z,30.7
2018-08-17T08:46:37.377Z,30.4
2018-08-17T08:47:44.591Z,30.3
2018-08-17T08:48:51.823Z,30.5
2018-08-17T08:49:59.063Z,30.7
2018-08-17T08:51:06.294Z,30.7
2018-08-17T08:52:13.521Z,30.8
2018-08-17T08:53:20.760Z,30.7
2018-08-17T08:54:27.987Z,30.6
2018-08-17T08:55:35.205Z,30.8
2018-08-17T08:56:42.168Z,30.8
2018-08-17T08:57:49.132Z,30.9
2018-08-17T08:58:56.360Z,31.2
2018-08-17T09:00:03.584Z,31.4
2018-08-17T09:01:10.811Z,31.6
2018-08-17T09:02:18.048Z,31.7
2018-08-17T09:03:25.275Z,31.7
2018-08-17T09:04:32.512Z,31.4
2018-08-17T09:05:39.743Z,31.1
2018-08-17T09:06:46.698Z,31.3
2018-08-17T09:07:53.932Z,31.7
2018-08-17T09:09:00.877Z,32
2018-08-17T09:10:08.111Z,32.3
2018-08-17T09:11:15.351Z,32.6
2018-08-17T09:12:22.573Z,32.4
2018-08-17T09:13:29.811Z,32
2018-08-17T09:14:51.706Z,32
2018-08-17T09:15:58.925Z,32.2
2018-08-17T09:17:06.162Z,32.1
2018-08-17T09:18:13.400Z,32.4
2018-08-17T09:19:20.632Z,32.3
2018-08-17T09:20:28.203Z,32.3
2018-08-17T09:21:35.719Z,32
2018-08-17T09:22:42.958Z,31.9
2018-08-17T09:23:50.191Z,31.8
2018-08-17T09:24:57.412Z,31.9
2018-08-17T09:26:04.660Z,32
2018-08-17T09:27:11.610Z,32.3
2018-08-17T09:28:18.842Z,32.4
2018-08-17T09:29:26.083Z,32.7
2018-08-17T09:30:33.319Z,33.1
2018-08-17T09:31:40.557Z,33.1
2018-08-17T09:32:47.781Z,32.4
2018-08-17T09:33:55.025Z,32.5
2018-08-17T09:35:02.249Z,32.5
2018-08-17T09:36:09.777Z,32.6
2018-08-17T09:37:17.281Z,32.9
2018-08-17T09:38:23.972Z,33.1
2018-08-17T09:39:31.194Z,33.5
2018-08-17T09:40:38.425Z,33.9
2018-08-17T09:41:45.942Z,34.2
2018-08-17T09:42:53.462Z,34.2
2018-08-17T09:44:00.713Z,33.9
2018-08-17T09:45:07.946Z,33.8
2018-08-17T09:46:15.173Z,33.7
2018-08-17T09:47:22.417Z,33.9
2018-08-17T09:48:29.642Z,34
2018-08-17T09:49:36.611Z,34.1
2018-08-17T09:50:43.836Z,34.2
2018-08-17T09:51:50.788Z,34.1
2018-08-17T09:52:58.009Z,34
2018-08-17T09:54:04.959Z,33.9
2018-08-17T09:55:11.919Z,33.8
2018-08-17T09:56:19.157Z,33.6
2018-08-17T09:57:26.139Z,33.5
2018-08-17T09:58:33.164Z,33.3
2018-08-17T09:59:40.130Z,33.5
2018-08-17T10:00:47.089Z,33.8
2018-08-17T10:01:54.310Z,34.3
2018-08-17T10:03:01.269Z,34.3
2018-08-17T10:04:08.702Z,34.4
2018-08-17T10:05:16.191Z,34.5
2018-08-17T10:06:23.419Z,34.2
2018-08-17T10:07:30.647Z,34.3
2018-08-17T10:08:37.867Z,34.2
2018-08-17T10:09:45.091Z,33.9
2018-08-17T10:10:52.048Z,33.8
2018-08-17T10:11:59.283Z,33.7
2018-08-17T10:13:06.526Z,33.6
2018-08-17T10:14:13.754Z,33.6
2018-08-17T10:15:20.981Z,33.8
2018-08-17T10:16:28.213Z,33.8
2018-08-17T10:17:35.175Z,34.1
2018-08-17T10:18:42.421Z,34.3
2018-08-17T10:19:49.379Z,34.4
2018-08-17T10:20:56.933Z,34.6
2018-08-17T10:22:05.912Z,34.6
2018-08-17T10:23:14.683Z,34.6
2018-08-17T10:24:36.555Z,34.6
2018-08-17T10:25:43.503Z,34.5
2018-08-17T10:26:50.721Z,34.5
2018-08-17T10:27:57.944Z,34.6
2018-08-17T10:29:04.888Z,34.5
2018-08-17T10:30:12.125Z,34.1
2018-08-17T10:31:19.368Z,33.6
2018-08-17T10:32:26.597Z,33.7
2018-08-17T10:33:33.833Z,34
2018-08-17T10:34:41.068Z,34.2
2018-08-17T10:35:48.297Z,34.5
2018-08-17T10:36:55.535Z,34.9
2018-08-17T10:38:02.770Z,35
2018-08-17T10:39:09.997Z,35
2018-08-17T10:40:17.226Z,34.5
2018-08-17T10:41:24.462Z,34.2
2018-08-17T10:42:31.693Z,34.1
2018-08-17T10:43:38.667Z,34.2
2018-08-17T10:44:45.899Z,34.4
2018-08-17T10:45:53.123Z,34.7
2018-08-17T10:47:00.349Z,34.9
2018-08-17T10:48:07.585Z,35.1
2018-08-17T10:49:15.012Z,35.6
2018-08-17T10:50:22.622Z,35.9
2018-08-17T10:51:29.857Z,36
2018-08-17T10:52:37.102Z,36.1
2018-08-17T10:53:44.328Z,36
2018-08-17T10:54:51.574Z,36.1
2018-08-17T10:55:58.813Z,36.2
2018-08-17T10:57:06.037Z,36.6
2018-08-17T10:58:13.278Z,36.7
2018-08-17T10:59:20.509Z,36.4
2018-08-17T11:00:27.739Z,36.4
2018-08-17T11:01:34.697Z,35.7
2018-08-17T11:02:41.936Z,35.6
2018-08-17T11:03:49.188Z,34.9
2018-08-17T11:04:56.407Z,34.8
2018-08-17T11:06:03.652Z,34.2
2018-08-17T11:07:10.900Z,34
2018-08-17T11:08:18.134Z,33.8
2018-08-17T11:09:25.368Z,34.1
2018-08-17T11:10:32.607Z,33.6
2018-08-17T11:11:39.828Z,33.7
2018-08-17T11:12:47.061Z,34.2
2018-08-17T11:13:54.306Z,34.6
2018-08-17T11:15:01.526Z,35.3
2018-08-17T11:16:08.491Z,35.9
2018-08-17T11:17:15.736Z,36.5
2018-08-17T11:18:22.988Z,35.8
2018-08-17T11:19:30.239Z,35.8
2018-08-17T11:20:37.472Z,35.7
2018-08-17T11:21:44.704Z,35.8
2018-08-17T11:22:52.084Z,35.4
2018-08-17T11:23:59.451Z,34.9
2018-08-17T11:25:06.687Z,35.1
2018-08-17T11:26:13.632Z,35.3
2018-08-17T11:27:20.580Z,35.4
2018-08-17T11:28:27.742Z,35.4
2018-08-17T11:29:34.689Z,35.2
2018-08-17T11:30:41.928Z,35.2
2018-08-17T11:31:49.155Z,35.3
2018-08-17T11:32:56.401Z,35.3
2018-08-17T11:34:03.641Z,35.1
2018-08-17T11:35:10.861Z,35.2
2018-08-17T11:36:18.093Z,35.5
2018-08-17T11:37:25.320Z,35.9
2018-08-17T11:38:32.547Z,36
2018-08-17T11:39:39.506Z,36.2
2018-08-17T11:40:46.204Z,36.3
2018-08-17T11:41:53.190Z,36.3
2018-08-17T11:43:00.141Z,36.3
2018-08-17T11:44:07.375Z,36.3
2018-08-17T11:45:14.606Z,36.5
2018-08-17T11:46:22.063Z,36.9
2018-08-17T11:47:29.287Z,36.9
2018-08-17T11:48:35.970Z,37.1
2018-08-17T11:49:42.927Z,36.9
2018-08-17T11:50:50.167Z,36.7
2018-08-17T11:51:57.364Z,36.2
2018-08-17T11:53:04.331Z,36.2
2018-08-17T11:54:11.789Z,36.5
2018-08-17T11:55:19.019Z,37.2
2018-08-17T11:56:26.479Z,37.3
2018-08-17T11:57:33.725Z,37.4
2018-08-17T11:58:40.958Z,37.5
2018-08-17T11:59:48.217Z,37.8
2018-08-17T12:00:55.464Z,37.9
2018-08-17T12:02:03.048Z,37.7
2018-08-17T12:03:10.418Z,36.9
2018-08-17T12:04:17.666Z,36.6
2018-08-17T12:05:24.632Z,36.8
2018-08-17T12:06:31.866Z,36.4
2018-08-17T12:07:39.118Z,36.6
2018-08-17T12:08:46.379Z,37
2018-08-17T12:09:53.355Z,37.2
2018-08-17T12:11:00.613Z,37.4
2018-08-17T12:12:07.890Z,37.6
2018-08-17T12:13:15.123Z,37.6
2018-08-17T12:14:22.319Z,37.7
2018-08-17T12:15:29.279Z,38
2018-08-17T12:16:36.236Z,38.2
2018-08-17T12:17:43.473Z,38
2018-08-17T12:18:50.894Z,37.6
2018-08-17T12:19:58.466Z,37.5
2018-08-17T12:21:05.711Z,37.8
2018-08-17T12:22:12.951Z,38
2018-08-17T12:23:20.421Z,38
2018-08-17T12:24:27.981Z,38.3
2018-08-17T12:25:35.546Z,38.5
2018-08-17T12:26:42.825Z,37.6
2018-08-17T12:27:49.825Z,36.6
2018-08-17T12:28:56.826Z,36.6
2018-08-17T12:30:04.096Z,37.1
2018-08-17T12:31:11.338Z,37.6
2018-08-17T12:32:18.806Z,37.6
2018-08-17T12:33:26.040Z,37.5
2018-08-17T12:34:33.508Z,37.5
2018-08-17T12:35:40.955Z,37.3
2018-08-17T12:36:48.205Z,37.5
2018-08-17T12:37:55.463Z,37.7
2018-08-17T12:39:02.707Z,37.7
2018-08-17T12:40:10.090Z,37.7
2018-08-17T12:41:17.265Z,37.8
2018-08-17T12:42:24.499Z,37.9
2018-08-17T12:43:31.970Z,38
2018-08-17T12:44:39.210Z,38.2
2018-08-17T12:45:46.681Z,38.4
2018-08-17T12:46:53.915Z,38
2018-08-17T12:48:01.163Z,36.6
2018-08-17T12:49:08.415Z,36.2
2018-08-17T12:50:15.673Z,36.2
2018-08-17T12:51:22.920Z,36
2018-08-17T12:52:29.747Z,35.7
2018-08-17T12:53:37.067Z,35.6
2018-08-17T12:54:44.310Z,35.1
2018-08-17T12:55:51.567Z,34.9
2018-08-17T12:56:58.811Z,34.8
2018-08-17T12:58:06.249Z,34.8
2018-08-17T12:59:13.767Z,34.9
2018-08-17T13:00:21.002Z,35.3
2018-08-17T13:01:28.266Z,36
2018-08-17T13:02:35.488Z,36
2018-08-17T13:03:42.715Z,35.6
2018-08-17T13:04:49.968Z,35.6
2018-08-17T13:05:57.222Z,35.4
2018-08-17T13:07:04.467Z,35.2
2018-08-17T13:08:11.724Z,35.1
2018-08-17T13:09:18.957Z,34.9
2018-08-17T13:10:26.429Z,35.1
2018-08-17T13:11:33.383Z,35.4
2018-08-17T13:12:40.845Z,35.3
2018-08-17T13:13:47.802Z,35.7
2018-08-17T13:14:55.035Z,36.2
2018-08-17T13:16:02.286Z,36.6
2018-08-17T13:17:09.597Z,37.1
2018-08-17T13:18:16.645Z,37.3
2018-08-17T13:19:23.875Z,36.7
2018-08-17T13:20:31.116Z,36.3
2018-08-17T13:21:38.573Z,36.1
2018-08-17T13:22:45.803Z,36.2
2018-08-17T13:23:53.268Z,36.6
2018-08-17T13:25:00.235Z,37.1
2018-08-17T13:26:07.483Z,37.3
2018-08-17T13:27:14.464Z,37.4
2018-08-17T13:28:21.697Z,37.7
2018-08-17T13:29:28.676Z,37.8
2018-08-17T13:30:35.587Z,38
2018-08-17T13:31:42.817Z,37.6
2018-08-17T13:32:50.285Z,37.2
2018-08-17T13:33:57.249Z,37.3
2018-08-17T13:35:04.723Z,37.4
2018-08-17T13:36:12.178Z,37.4
2018-08-17T13:37:19.612Z,37.6
2018-08-17T13:38:26.862Z,37.8
2018-08-17T13:39:34.124Z,38.1
2018-08-17T13:40:41.356Z,38.1
2018-08-17T13:41:48.606Z,38
2018-08-17T13:42:55.856Z,38.2
2018-08-17T13:45:16.118Z,37.9
2018-08-17T13:46:23.367Z,37.7
2018-08-17T13:47:30.601Z,37.7
2018-08-17T13:48:38.170Z,37.6
2018-08-17T13:49:45.651Z,37.8
2018-08-17T13:50:52.842Z,38
2018-08-17T13:52:00.094Z,37.9
2018-08-17T13:53:07.359Z,38
2018-08-17T13:54:14.594Z,38.3
2018-08-17T13:55:21.935Z,38.4
2018-08-17T13:56:29.335Z,38.6
2018-08-17T13:57:36.617Z,38.6
2018-08-17T13:58:43.868Z,38.7
2018-08-17T13:59:51.333Z,38.8
2018-08-17T14:00:58.571Z,38.6
2018-08-17T14:02:05.862Z,38.3
2018-08-17T14:03:13.168Z,37.7
2018-08-17T14:04:20.445Z,37.3
2018-08-17T14:05:27.755Z,37.2
2018-08-17T14:06:35.022Z,37.2
2018-08-17T14:07:42.253Z,37.2
2018-08-17T14:08:49.484Z,37.2
2018-08-17T14:09:56.850Z,37.1
2018-08-17T14:11:04.178Z,36.7
2018-08-17T14:12:11.424Z,36.6
2018-08-17T14:13:18.673Z,36.8
2018-08-17T14:14:25.911Z,37.1
2018-08-17T14:15:33.479Z,37.4
2018-08-17T14:16:40.782Z,37.5
2018-08-17T14:17:48.250Z,37.7
2018-08-17T14:18:55.498Z,38
2018-08-17T14:20:02.736Z,38.2
2018-08-17T14:21:09.987Z,38
2018-08-17T14:22:17.339Z,37.2
2018-08-17T14:23:24.772Z,36.1
2018-08-17T14:24:32.032Z,35.8
2018-08-17T14:25:39.005Z,36.3
2018-08-17T14:26:46.251Z,36.7
2018-08-17T14:27:53.496Z,36.9
2018-08-17T14:29:00.949Z,37.1
2018-08-17T14:30:07.909Z,37.3
2018-08-17T14:31:15.175Z,37.6
2018-08-17T14:32:22.156Z,37.7
2018-08-17T14:33:29.408Z,37.5
2018-08-17T14:34:36.642Z,37.6
2018-08-17T14:35:43.886Z,37.6
2018-08-17T14:36:51.151Z,37.5
2018-08-17T14:37:58.132Z,37.6
2018-08-17T14:39:05.385Z,37.8
2018-08-17T14:40:12.681Z,37.6
2018-08-17T14:41:19.953Z,37.4
2018-08-17T14:42:27.408Z,37.3
2018-08-17T14:43:34.652Z,37.4
2018-08-17T14:44:42.120Z,37.6
2018-08-17T14:45:49.358Z,37.6
2018-08-17T14:46:56.530Z,37.7
2018-08-17T14:48:03.795Z,38
2018-08-17T14:49:11.047Z,38
2018-08-17T14:50:18.283Z,37.8
2018-08-17T14:51:25.244Z,37.6
2018-08-17T14:52:32.505Z,37.4
2018-08-17T14:53:39.754Z,37.4
2018-08-17T14:54:47.011Z,37.5
2018-08-17T14:55:54.244Z,37.2
2018-08-17T14:57:01.473Z,36.5
2018-08-17T14:58:08.955Z,36
2018-08-17T14:59:16.194Z,35.5
2018-08-17T15:00:23.665Z,35.7
2018-08-17T15:01:30.898Z,35.8